createdAt,value
2023-05-10T00:00:03.184Z,986.21
2023-05-10T00:01:02.841Z,986.24
2023-05-10T00:02:02.964Z,986.28
2023-05-10T00:03:02.985Z,986.24
2023-05-10T00:04:02.980Z,986.24
2023-05-10T00:05:02.885Z,986.23
2023-05-10T00:06:02.859Z,986.21
2023-05-10T00:07:02.896Z,986.25
2023-05-10T00:08:02.800Z,986.23
2023-05-10T00:09:02.850Z,986.23
2023-05-10T00:10:02.672Z,986.26
2023-05-10T00:11:02.705Z,986.15
2023-05-10T00:12:02.757Z,986.30
2023-05-10T00:13:02.766Z,986.29
2023-05-10T00:14:02.677Z,986.23
2023-05-10T00:15:02.752Z,986.22
2023-05-10T00:16:02.828Z,986.20
2023-05-10T00:17:02.784Z,986.17
2023-05-10T00:18:02.756Z,986.16
2023-05-10T00:19:02.667Z,986.17
2023-05-10T00:20:02.725Z,986.26
2023-05-10T00:21:02.744Z,986.19
2023-05-10T00:22:02.759Z,986.14
2023-05-10T00:23:02.712Z,986.23
2023-05-10T00:24:02.685Z,986.15
2023-05-10T00:25:02.700Z,986.14
2023-05-10T00:26:02.721Z,986.09
2023-05-10T00:27:02.670Z,986.13
2023-05-10T00:28:02.924Z,986.13
2023-05-10T00:29:02.881Z,986.16
2023-05-10T00:30:02.795Z,986.14
2023-05-10T00:31:02.750Z,986.13
2023-05-10T00:32:02.734Z,986.20
2023-05-10T00:33:02.675Z,986.07
2023-05-10T00:34:02.680Z,986.10
2023-05-10T00:35:02.577Z,986.14
2023-05-10T00:36:02.624Z,986.13
2023-05-10T00:37:02.582Z,986.06
2023-05-10T00:38:02.544Z,986.14
2023-05-10T00:39:02.594Z,986.11
2023-05-10T00:40:02.846Z,986.10
2023-05-10T00:41:02.680Z,986.05
2023-05-10T00:42:02.643Z,986.03
2023-05-10T00:43:02.595Z,986.05
2023-05-10T00:44:02.583Z,986.06
2023-05-10T00:45:02.565Z,986.04
2023-05-10T00:46:02.569Z,986.05
2023-05-10T00:47:02.513Z,986.04
2023-05-10T00:48:02.560Z,986.04
2023-05-10T00:49:02.565Z,986.06
2023-05-10T00:50:02.508Z,985.96
2023-05-10T00:51:02.832Z,986.01
2023-05-10T00:52:02.524Z,986.05
2023-05-10T00:53:02.510Z,986.01
2023-05-10T00:54:02.469Z,986.04
2023-05-10T00:55:02.502Z,986.08
2023-05-10T00:56:02.451Z,985.98
2023-05-10T00:57:02.485Z,986.05
2023-05-10T00:58:02.449Z,986.03
2023-05-10T00:59:02.477Z,986.06
2023-05-10T01:00:02.473Z,986.06
2023-05-10T01:01:02.578Z,986.04
2023-05-10T01:02:02.338Z,986.03
2023-05-10T01:03:02.427Z,986.02
2023-05-10T01:04:03.361Z,985.97
2023-05-10T01:05:02.466Z,985.99
2023-05-10T01:06:02.331Z,985.96
2023-05-10T01:07:02.291Z,985.97
2023-05-10T01:08:02.288Z,986.02
2023-05-10T01:09:02.258Z,985.94
2023-05-10T01:10:02.405Z,985.98
2023-05-10T01:11:02.759Z,986.01
2023-05-10T01:12:02.434Z,985.95
2023-05-10T01:13:02.233Z,985.98
2023-05-10T01:14:02.438Z,986.00
2023-05-10T01:15:03.336Z,985.89
2023-05-10T01:16:02.430Z,985.94
2023-05-10T01:17:02.385Z,986.00
2023-05-10T01:18:02.619Z,985.93
2023-05-10T01:19:02.300Z,985.98
2023-05-10T01:20:02.294Z,985.98
2023-05-10T01:21:02.229Z,985.94
2023-05-10T01:22:02.398Z,985.98
2023-05-10T01:23:02.231Z,985.99
2023-05-10T01:24:02.335Z,985.96
2023-05-10T01:25:02.252Z,985.89
2023-05-10T01:26:02.280Z,985.96
2023-05-10T01:27:02.217Z,985.97
2023-05-10T01:28:02.245Z,985.96
2023-05-10T01:29:02.513Z,985.96
2023-05-10T01:30:21.673Z,985.93
2023-05-10T01:31:04.173Z,985.93
2023-05-10T01:32:02.183Z,985.93
2023-05-10T01:33:02.678Z,985.94
2023-05-10T01:34:02.240Z,985.91
2023-05-10T01:35:02.217Z,985.96
2023-05-10T01:36:13.283Z,985.88
2023-05-10T01:37:02.248Z,985.94
2023-05-10T01:38:02.191Z,985.91
2023-05-10T01:39:02.169Z,986.02
2023-05-10T01:40:02.146Z,985.90
2023-05-10T01:41:02.061Z,985.90
2023-05-10T01:42:02.048Z,985.86
2023-05-10T01:43:02.015Z,985.92
2023-05-10T01:44:02.045Z,985.90
2023-05-10T01:45:02.091Z,985.85
2023-05-10T01:46:02.041Z,985.90
2023-05-10T01:47:02.107Z,985.93
2023-05-10T01:48:02.050Z,985.91
2023-05-10T01:49:02.088Z,985.86
2023-05-10T01:50:02.095Z,985.92
2023-05-10T01:51:02.064Z,985.84
2023-05-10T01:52:02.050Z,985.89
2023-05-10T01:53:02.112Z,985.92
2023-05-10T01:54:02.112Z,985.88
2023-05-10T01:55:02.349Z,985.92
2023-05-10T01:56:02.086Z,985.93
2023-05-10T01:57:02.049Z,985.95
2023-05-10T01:58:02.061Z,985.92
2023-05-10T01:59:02.028Z,986.01
2023-05-10T02:00:02.140Z,985.94
2023-05-10T02:01:02.101Z,985.95
2023-05-10T02:02:02.047Z,985.92
2023-05-10T02:03:02.165Z,985.96
2023-05-10T02:04:20.811Z,985.96
2023-05-10T02:05:02.071Z,985.96
2023-05-10T02:06:02.015Z,985.91
2023-05-10T02:07:02.027Z,985.95
2023-05-10T02:08:01.965Z,985.94
2023-05-10T02:09:01.937Z,985.96
2023-05-10T02:10:01.971Z,985.93
2023-05-10T02:11:02.017Z,985.97
2023-05-10T02:12:02.078Z,985.92
2023-05-10T02:13:01.899Z,985.92
2023-05-10T02:14:02.001Z,985.95
2023-05-10T02:15:01.834Z,985.96
2023-05-10T02:16:01.841Z,986.01
2023-05-10T02:17:02.085Z,985.97
2023-05-10T02:18:02.022Z,986.01
2023-05-10T02:19:01.835Z,986.08
2023-05-10T02:20:01.792Z,986.00
2023-05-10T02:21:01.934Z,986.07
2023-05-10T02:22:01.932Z,986.06
2023-05-10T02:23:01.810Z,986.07
2023-05-10T02:24:01.736Z,986.04
2023-05-10T02:25:01.754Z,986.17
2023-05-10T02:26:01.810Z,986.24
2023-05-10T02:27:01.781Z,986.32
2023-05-10T02:28:01.828Z,986.25
2023-05-10T02:29:01.775Z,986.27
2023-05-10T02:30:01.854Z,986.28
2023-05-10T02:31:01.711Z,986.27
2023-05-10T02:32:02.013Z,986.18
2023-05-10T02:33:01.828Z,986.23
2023-05-10T02:34:01.780Z,986.21
2023-05-10T02:35:01.760Z,986.21
2023-05-10T02:36:01.692Z,986.19
2023-05-10T02:37:01.766Z,986.14
2023-05-10T02:39:02.872Z,986.17
2023-05-10T02:39:02.915Z,986.23
2023-05-10T02:40:01.717Z,986.30
2023-05-10T02:41:01.693Z,986.23
2023-05-10T02:42:01.730Z,986.22
2023-05-10T02:43:01.709Z,986.15
2023-05-10T02:44:01.659Z,986.17
2023-05-10T02:45:01.765Z,986.28
2023-05-10T02:46:01.629Z,986.27
2023-05-10T02:47:01.621Z,986.23
2023-05-10T02:48:01.660Z,986.22
2023-05-10T02:49:01.688Z,986.28
2023-05-10T02:50:01.661Z,986.14
2023-05-10T02:51:01.594Z,986.23
2023-05-10T02:52:01.631Z,986.16
2023-05-10T02:53:01.639Z,986.27
2023-05-10T02:54:01.686Z,986.23
2023-05-10T02:55:01.681Z,986.27
2023-05-10T02:56:01.579Z,986.23
2023-05-10T02:57:01.686Z,986.22
2023-05-10T02:58:01.643Z,986.30
2023-05-10T02:59:01.523Z,986.21
2023-05-10T03:00:01.616Z,986.27
2023-05-10T03:01:01.624Z,986.27
2023-05-10T03:02:01.747Z,986.31
2023-05-10T03:03:02.517Z,986.29
2023-05-10T03:04:01.533Z,986.32
2023-05-10T03:05:01.537Z,986.29
2023-05-10T03:06:01.566Z,986.33
2023-05-10T03:07:01.585Z,986.39
2023-05-10T03:08:01.500Z,986.37
2023-05-10T03:09:01.477Z,986.36
2023-05-10T03:10:01.502Z,986.42
2023-05-10T03:11:01.487Z,986.36
2023-05-10T03:12:01.523Z,986.45
2023-05-10T03:13:01.497Z,986.42
2023-05-10T03:14:01.453Z,986.49
2023-05-10T03:15:01.501Z,986.44
2023-05-10T03:16:01.569Z,986.48
2023-05-10T03:17:01.434Z,986.51
2023-05-10T03:18:01.495Z,986.50
2023-05-10T03:19:01.372Z,986.55
2023-05-10T03:20:01.421Z,986.54
2023-05-10T03:21:01.439Z,986.55
2023-05-10T03:22:01.381Z,986.57
2023-05-10T03:23:01.360Z,986.62
2023-05-10T03:24:20.957Z,986.57
2023-05-10T03:25:01.355Z,986.56
2023-05-10T03:26:01.316Z,986.49
2023-05-10T03:27:01.312Z,986.53
2023-05-10T03:28:01.359Z,986.46
2023-05-10T03:29:01.343Z,986.60
2023-05-10T03:30:01.296Z,986.52
2023-05-10T03:31:01.295Z,986.57
2023-05-10T03:32:01.323Z,986.57
2023-05-10T03:33:01.391Z,986.61
2023-05-10T03:34:01.280Z,986.57
2023-05-10T03:35:01.279Z,986.63
2023-05-10T03:36:01.244Z,986.61
2023-05-10T03:37:01.243Z,986.61
2023-05-10T03:38:01.785Z,986.65
2023-05-10T03:39:01.216Z,986.63
2023-05-10T03:40:01.266Z,986.65
2023-05-10T03:41:01.214Z,986.67
2023-05-10T03:42:01.178Z,986.75
2023-05-10T03:43:01.316Z,986.71
2023-05-10T03:44:01.271Z,986.77
2023-05-10T03:45:01.192Z,986.70
2023-05-10T03:46:01.241Z,986.64
2023-05-10T03:47:01.239Z,986.72
2023-05-10T03:48:01.305Z,986.78
2023-05-10T03:49:01.172Z,986.80
2023-05-10T03:50:01.103Z,986.81
2023-05-10T03:51:01.210Z,986.79
2023-05-10T03:52:01.178Z,986.81
2023-05-10T03:53:01.140Z,986.80
2023-05-10T03:54:01.174Z,986.78
2023-05-10T03:55:01.194Z,986.84
2023-05-10T03:56:01.081Z,986.85
2023-05-10T03:57:01.079Z,986.83
2023-05-10T03:58:01.116Z,986.84
2023-05-10T03:59:01.095Z,986.89
2023-05-10T04:00:01.142Z,986.83
2023-05-10T04:01:01.065Z,986.91
2023-05-10T04:02:01.068Z,986.95
2023-05-10T04:03:26.351Z,986.88
2023-05-10T04:04:02.139Z,986.96
2023-05-10T04:05:01.143Z,986.91
2023-05-10T04:06:01.088Z,986.95
2023-05-10T04:07:01.079Z,986.92
2023-05-10T04:08:01.089Z,986.92
2023-05-10T04:09:01.209Z,986.92
2023-05-10T04:10:01.011Z,986.90
2023-05-10T04:11:01.032Z,986.91
2023-05-10T04:12:00.979Z,986.90
2023-05-10T04:13:01.038Z,986.97
2023-05-10T04:14:01.003Z,986.99
2023-05-10T04:15:00.961Z,986.93
2023-05-10T04:16:01.002Z,986.92
2023-05-10T04:17:01.023Z,986.90
2023-05-10T04:18:00.994Z,987.04
2023-05-10T04:19:00.968Z,987.01
2023-05-10T04:20:00.993Z,987.05
2023-05-10T04:21:00.922Z,987.01
2023-05-10T04:22:00.976Z,987.11
2023-05-10T04:23:00.880Z,986.96
2023-05-10T04:24:00.893Z,986.98
2023-05-10T04:25:00.899Z,987.03
2023-05-10T04:26:00.888Z,987.08
2023-05-10T04:27:00.871Z,987.12
2023-05-10T04:28:00.940Z,987.04
2023-05-10T04:29:00.833Z,987.09
2023-05-10T04:30:00.841Z,987.05
2023-05-10T04:31:00.926Z,987.16
2023-05-10T04:32:00.791Z,987.05
2023-05-10T04:33:00.880Z,987.02
2023-05-10T04:34:00.810Z,987.08
2023-05-10T04:35:00.813Z,987.09
2023-05-10T04:36:00.800Z,986.98
2023-05-10T04:37:00.833Z,986.98
2023-05-10T04:38:00.771Z,987.10
2023-05-10T04:39:01.282Z,987.13
2023-05-10T04:40:00.825Z,987.14
2023-05-10T04:41:00.807Z,987.13
2023-05-10T04:42:00.770Z,987.13
2023-05-10T04:43:00.796Z,987.12
2023-05-10T04:44:01.787Z,987.18
2023-05-10T04:45:00.761Z,987.19
2023-05-10T04:46:00.796Z,987.12
2023-05-10T04:47:00.731Z,987.19
2023-05-10T04:48:00.778Z,987.14
2023-05-10T04:49:00.792Z,987.16
2023-05-10T04:50:00.735Z,987.22
2023-05-10T04:51:00.735Z,987.14
2023-05-10T04:52:00.804Z,987.21
2023-05-10T04:53:00.714Z,987.27
2023-05-10T04:54:06.025Z,987.20
2023-05-10T04:55:02.827Z,987.22
2023-05-10T04:56:00.684Z,987.29
2023-05-10T04:57:07.990Z,987.26
2023-05-10T04:58:00.631Z,987.28
2023-05-10T04:59:00.615Z,987.21
2023-05-10T05:00:00.674Z,987.27
2023-05-10T05:01:00.933Z,987.27
2023-05-10T05:02:00.836Z,987.29
2023-05-10T05:03:00.702Z,987.32
2023-05-10T05:04:00.795Z,987.35
2023-05-10T05:05:00.772Z,987.36
2023-05-10T05:06:00.698Z,987.36
2023-05-10T05:07:00.578Z,987.38
2023-05-10T05:08:00.603Z,987.44
2023-05-10T05:09:00.572Z,987.45
2023-05-10T05:10:00.593Z,987.45
2023-05-10T05:11:00.590Z,987.43
2023-05-10T05:12:00.571Z,987.47
2023-05-10T05:13:00.625Z,987.56
2023-05-10T05:14:00.585Z,987.47
2023-05-10T05:15:00.528Z,987.49
2023-05-10T05:16:00.608Z,987.56
2023-05-10T05:17:00.602Z,987.55
2023-05-10T05:18:00.609Z,987.56
2023-05-10T05:19:00.524Z,987.57
2023-05-10T05:20:00.572Z,987.59
2023-05-10T05:21:00.504Z,987.66
2023-05-10T05:22:00.553Z,987.69
2023-05-10T05:23:00.512Z,987.65
2023-05-10T05:24:00.512Z,987.69
2023-05-10T05:25:00.486Z,987.68
2023-05-10T05:26:00.522Z,987.71
2023-05-10T05:27:00.484Z,987.73
2023-05-10T05:28:00.527Z,987.72
2023-05-10T05:29:00.409Z,987.76
2023-05-10T05:30:00.431Z,987.78
2023-05-10T05:31:00.478Z,987.75
2023-05-10T05:32:00.549Z,987.72
2023-05-10T05:33:00.500Z,987.80
2023-05-10T05:34:00.444Z,987.77
2023-05-10T05:35:00.385Z,987.77
2023-05-10T05:36:00.360Z,987.73
2023-05-10T05:37:00.391Z,987.75
2023-05-10T05:38:00.359Z,987.85
2023-05-10T05:39:00.650Z,987.85
2023-05-10T05:40:00.534Z,987.80
2023-05-10T05:41:00.400Z,987.79
2023-05-10T05:42:00.394Z,987.77
2023-05-10T05:43:00.304Z,987.69
2023-05-10T05:44:00.327Z,987.70
2023-05-10T05:45:00.329Z,987.80
2023-05-10T05:46:00.330Z,987.78
2023-05-10T05:47:00.315Z,987.78
2023-05-10T05:48:00.728Z,987.80
2023-05-10T05:49:00.255Z,987.82
2023-05-10T05:50:00.358Z,987.86
2023-05-10T05:51:07.276Z,987.88
2023-05-10T05:52:00.348Z,987.88
2023-05-10T05:53:00.249Z,987.88
2023-05-10T05:54:00.291Z,987.94
2023-05-10T05:55:00.302Z,987.95
2023-05-10T05:56:00.227Z,987.93
2023-05-10T05:57:01.201Z,987.94
2023-05-10T05:58:00.201Z,987.99
2023-05-10T05:59:00.169Z,987.97
2023-05-10T06:00:00.223Z,988.00
2023-05-10T06:01:00.311Z,988.05
2023-05-10T06:02:00.225Z,988.02
2023-05-10T06:03:00.393Z,988.05
2023-05-10T06:04:00.356Z,988.05
2023-05-10T06:05:00.176Z,988.09
2023-05-10T06:06:00.190Z,988.13
2023-05-10T06:07:00.166Z,988.08
2023-05-10T06:08:00.182Z,988.11
2023-05-10T06:09:00.373Z,988.15
2023-05-10T06:10:00.188Z,988.08
2023-05-10T06:11:00.159Z,988.10
2023-05-10T06:12:00.179Z,988.13
2023-05-10T06:13:00.185Z,988.11
2023-05-10T06:14:00.108Z,988.12
2023-05-10T06:15:00.113Z,988.12
2023-05-10T06:16:01.059Z,988.21
2023-05-10T06:17:00.259Z,988.18
2023-05-10T06:18:00.257Z,988.25
2023-05-10T06:19:00.074Z,988.18
2023-05-10T06:20:00.078Z,988.14
2023-05-10T06:21:00.072Z,988.24
2023-05-10T06:22:00.027Z,988.13
2023-05-10T06:23:00.069Z,988.09
2023-05-10T06:23:59.987Z,988.13
2023-05-10T06:25:00.047Z,988.18
2023-05-10T06:26:00.053Z,988.13
2023-05-10T06:27:00.005Z,988.15
2023-05-10T06:28:00.039Z,988.14
2023-05-10T06:28:59.994Z,988.22
2023-05-10T06:30:11.741Z,988.21
2023-05-10T06:31:02.079Z,988.24
2023-05-10T06:32:00.003Z,988.26
2023-05-10T06:32:59.968Z,988.29
2023-05-10T09:08:19.142Z,989.37
2023-05-10T09:09:18.886Z,989.28
2023-05-10T09:10:18.888Z,989.30
2023-05-10T09:11:20.136Z,989.25
2023-05-10T09:12:19.990Z,989.27
2023-05-10T09:13:20.141Z,989.27
2023-05-10T09:14:20.065Z,989.26
2023-05-10T09:15:20.007Z,989.32
2023-05-10T09:16:21.590Z,989.24
2023-05-10T09:17:20.914Z,989.27
2023-05-10T09:18:20.016Z,989.28
2023-05-10T09:19:19.980Z,989.28
2023-05-10T09:20:19.941Z,989.29
2023-05-10T09:21:19.942Z,989.24
2023-05-10T09:22:19.943Z,989.31
2023-05-10T09:23:19.949Z,989.34
2023-05-10T09:24:19.988Z,989.33
2023-05-10T09:25:20.154Z,989.31
2023-05-10T09:26:19.946Z,989.25
2023-05-10T09:27:19.865Z,989.36
2023-05-10T09:28:19.942Z,989.36
2023-05-10T09:29:20.081Z,989.33
2023-05-10T09:30:20.129Z,989.32
2023-05-10T09:31:20.044Z,989.31
2023-05-10T09:32:20.029Z,989.35
2023-05-10T09:33:19.916Z,989.34
2023-05-10T09:34:19.930Z,989.34
2023-05-10T09:35:20.017Z,989.40
2023-05-10T09:36:19.870Z,989.38
2023-05-10T09:37:20.132Z,989.41
2023-05-10T09:38:19.977Z,989.39
2023-05-10T09:39:20.015Z,989.36
2023-05-10T09:40:19.898Z,989.40
2023-05-10T09:41:19.893Z,989.46
2023-05-10T09:42:19.870Z,989.40
2023-05-10T09:43:19.807Z,989.41
2023-05-10T09:44:19.817Z,989.48
2023-05-10T09:45:19.933Z,989.46
2023-05-10T09:46:20.130Z,989.52
2023-05-10T09:47:25.474Z,989.43
2023-05-10T09:48:20.015Z,989.37
2023-05-10T09:49:26.049Z,989.50
2023-05-10T09:50:19.940Z,989.37
2023-05-10T09:51:19.676Z,989.42
2023-05-10T09:52:20.754Z,989.40
2023-05-10T09:53:19.701Z,989.34
2023-05-10T09:54:19.620Z,989.39
2023-05-10T09:55:19.696Z,989.34
2023-05-10T09:56:23.758Z,989.36
2023-05-10T09:57:20.681Z,989.37
2023-05-10T09:58:19.707Z,989.26
2023-05-10T09:59:19.605Z,989.29
2023-05-10T10:00:19.612Z,989.26
2023-05-10T10:01:19.780Z,989.28
2023-05-10T10:02:19.960Z,989.32
2023-05-10T10:03:19.692Z,989.35
2023-05-10T10:04:19.734Z,989.29
2023-05-10T10:05:19.644Z,989.34
2023-05-10T10:06:29.495Z,989.32
2023-05-10T10:07:22.007Z,989.23
2023-05-10T10:08:19.937Z,989.35
2023-05-10T10:09:20.244Z,989.31
2023-05-10T10:10:19.682Z,989.35
2023-05-10T10:11:19.812Z,989.41
2023-05-10T10:12:19.643Z,989.37
2023-05-10T10:13:19.821Z,989.35
2023-05-10T10:14:19.479Z,989.33
2023-05-10T10:15:19.644Z,989.42
2023-05-10T10:16:19.575Z,989.41
2023-05-10T10:17:19.480Z,989.35
2023-05-10T10:18:19.532Z,989.37
2023-05-10T10:19:19.451Z,989.38
2023-05-10T10:20:19.690Z,989.37
2023-05-10T10:21:19.513Z,989.35
2023-05-10T10:22:20.513Z,989.41
2023-05-10T10:23:19.547Z,989.36
2023-05-10T10:24:19.689Z,989.41
2023-05-10T10:25:19.806Z,989.41
2023-05-10T10:26:19.578Z,989.42
2023-05-10T10:27:19.528Z,989.39
2023-05-10T10:28:19.576Z,989.51
2023-05-10T10:29:19.642Z,989.46
2023-05-10T10:30:19.618Z,989.44
2023-05-10T10:31:19.918Z,989.50
2023-05-10T10:32:19.462Z,989.45
2023-05-10T10:33:27.691Z,989.49
2023-05-10T10:34:21.690Z,989.43
2023-05-10T10:35:19.459Z,989.38
2023-05-10T10:36:19.648Z,989.40
2023-05-10T10:37:19.388Z,989.40
2023-05-10T10:38:19.424Z,989.42
2023-05-10T10:39:19.572Z,989.36
2023-05-10T10:40:19.420Z,989.38
2023-05-10T10:41:19.487Z,989.38
2023-05-10T10:42:19.762Z,989.48
2023-05-10T10:43:19.405Z,989.50
2023-05-10T10:44:19.513Z,989.45
2023-05-10T10:45:19.978Z,989.44
2023-05-10T10:46:20.185Z,989.41
2023-05-10T10:47:19.333Z,989.44
2023-05-10T10:48:19.280Z,989.46
2023-05-10T10:49:19.408Z,989.52
2023-05-10T10:50:19.851Z,989.47
2023-05-10T10:51:19.262Z,989.46
2023-05-10T10:52:19.295Z,989.44
2023-05-10T10:53:19.370Z,989.51
2023-05-10T10:54:19.597Z,989.47
2023-05-10T10:55:19.619Z,989.45
2023-05-10T10:56:20.099Z,989.47
2023-05-10T10:57:19.314Z,989.52
2023-05-10T10:58:19.558Z,989.45
2023-05-10T10:59:19.307Z,989.42
2023-05-10T11:00:19.254Z,989.39
2023-05-10T11:01:19.648Z,989.45
2023-05-10T11:02:19.718Z,989.37
2023-05-10T11:03:19.285Z,989.47
2023-05-10T11:04:19.428Z,989.46
2023-05-10T11:05:19.432Z,989.44
2023-05-10T11:06:21.022Z,989.46
2023-05-10T11:07:19.541Z,989.44
2023-05-10T11:08:19.703Z,989.52
2023-05-10T11:09:19.907Z,989.53
2023-05-10T11:10:19.368Z,989.53
2023-05-10T11:11:19.972Z,989.51
2023-05-10T11:12:23.887Z,989.54
2023-05-10T11:13:19.809Z,989.53
2023-05-10T11:14:19.578Z,989.48
2023-05-10T11:15:19.276Z,989.52
2023-05-10T11:16:19.764Z,989.52
2023-05-10T11:17:19.866Z,989.53
2023-05-10T11:18:19.567Z,989.56
2023-05-10T11:19:19.705Z,989.57
2023-05-10T11:20:19.629Z,989.55
2023-05-10T11:21:19.817Z,989.58
2023-05-10T11:22:19.433Z,989.52
2023-05-10T11:23:19.137Z,989.53
2023-05-10T11:24:19.555Z,989.55
2023-05-10T11:25:19.290Z,989.56
2023-05-10T11:26:19.117Z,989.55
2023-05-10T11:27:19.215Z,989.48
2023-05-10T11:28:19.143Z,989.53
2023-05-10T11:29:19.193Z,989.54
2023-05-10T11:30:19.358Z,989.55
2023-05-10T11:31:19.326Z,989.59
2023-05-10T11:32:19.430Z,989.62
2023-05-10T11:33:19.220Z,989.64
2023-05-10T11:34:19.245Z,989.66
2023-05-10T11:35:19.312Z,989.62
2023-05-10T11:36:19.096Z,989.70
2023-05-10T11:37:19.190Z,989.66
2023-05-10T11:38:19.039Z,989.70
2023-05-10T11:39:19.162Z,989.65
2023-05-10T11:40:19.123Z,989.70
2023-05-10T11:41:18.893Z,989.67
2023-05-10T11:42:18.957Z,989.57
2023-05-10T11:43:18.869Z,989.62
2023-05-10T11:44:19.024Z,989.62
2023-05-10T11:45:18.889Z,989.67
2023-05-10T11:46:18.934Z,989.72
2023-05-10T11:47:18.961Z,989.67
2023-05-10T11:48:18.955Z,989.71
2023-05-10T11:49:18.939Z,989.74
2023-05-10T11:50:19.422Z,989.75
2023-05-10T11:51:18.988Z,989.80
2023-05-10T11:52:19.132Z,989.87
2023-05-10T11:53:18.905Z,989.81
2023-05-10T11:54:18.919Z,989.81
2023-05-10T11:55:18.938Z,989.85
2023-05-10T11:56:18.852Z,989.82
2023-05-10T11:57:18.864Z,989.86
2023-05-10T11:58:18.840Z,989.82
2023-05-10T11:59:18.955Z,989.90
2023-05-10T12:00:19.176Z,989.92
2023-05-10T12:01:18.991Z,989.94
2023-05-10T12:02:19.088Z,989.97
2023-05-10T12:03:19.299Z,989.99
2023-05-10T12:04:19.201Z,989.98
2023-05-10T12:05:18.883Z,990.05
2023-05-10T12:06:18.886Z,990.05
2023-05-10T12:07:18.842Z,990.04
2023-05-10T12:08:18.769Z,990.00
2023-05-10T12:09:23.031Z,990.06
2023-05-10T12:10:20.117Z,990.02
2023-05-10T12:11:18.976Z,990.04
2023-05-10T12:12:18.822Z,990.07
2023-05-10T12:13:18.683Z,989.96
2023-05-10T12:14:18.730Z,989.94
2023-05-10T12:15:18.702Z,989.92
2023-05-10T12:16:18.747Z,989.97
2023-05-10T12:17:18.730Z,989.97
2023-05-10T12:18:18.809Z,990.01
2023-05-10T12:19:18.713Z,990.01
2023-05-10T12:20:19.310Z,989.94
2023-05-10T12:21:18.675Z,990.03
2023-05-10T12:22:19.032Z,990.03
2023-05-10T12:23:18.726Z,990.00
2023-05-10T12:24:18.980Z,989.95
2023-05-10T12:25:18.833Z,990.04
2023-05-10T12:26:18.708Z,990.01
2023-05-10T12:27:18.794Z,990.07
2023-05-10T12:28:19.304Z,990.08
2023-05-10T12:29:19.027Z,990.05
2023-05-10T12:30:18.943Z,990.04
2023-05-10T12:31:18.994Z,990.07
2023-05-10T12:32:19.085Z,990.12
2023-05-10T12:33:18.772Z,990.09
2023-05-10T12:34:18.647Z,990.04
2023-05-10T12:35:18.657Z,990.08
2023-05-10T12:36:18.797Z,990.10
2023-05-10T12:37:20.337Z,990.08
2023-05-10T12:38:18.952Z,990.02
2023-05-10T12:39:18.672Z,990.16
2023-05-10T12:40:19.351Z,990.10
2023-05-10T12:41:18.647Z,990.12
2023-05-10T12:42:18.609Z,990.07
2023-05-10T12:43:19.032Z,990.00
2023-05-10T12:44:18.644Z,990.02
2023-05-10T12:45:18.648Z,990.02
2023-05-10T12:46:18.602Z,990.05
2023-05-10T12:47:18.817Z,990.10
2023-05-10T12:48:19.085Z,990.07
2023-05-10T12:49:18.506Z,990.07
2023-05-10T12:50:18.856Z,990.06
2023-05-10T12:51:18.554Z,990.08
2023-05-10T12:52:18.587Z,990.10
2023-05-10T12:53:18.683Z,990.02
2023-05-10T12:54:18.718Z,990.07
2023-05-10T12:55:18.826Z,990.14
2023-05-10T12:56:18.584Z,989.99
2023-05-10T12:57:18.581Z,990.01
2023-05-10T12:58:31.908Z,990.03
2023-05-10T12:59:20.715Z,990.11
2023-05-10T13:00:18.811Z,990.08
2023-05-10T13:01:19.188Z,990.12
2023-05-10T13:02:18.330Z,990.07
2023-05-10T13:03:18.416Z,990.07
2023-05-10T13:04:18.389Z,990.06
2023-05-10T13:05:18.302Z,990.05
2023-05-10T13:06:18.401Z,990.02
2023-05-10T13:07:19.063Z,990.04
2023-05-10T13:08:19.186Z,990.10
2023-05-10T13:09:18.786Z,990.07
2023-05-10T13:10:19.028Z,990.11
2023-05-10T13:11:18.541Z,990.09
2023-05-10T13:12:18.258Z,990.05
2023-05-10T13:13:18.323Z,990.02
2023-05-10T13:14:18.383Z,990.04
2023-05-10T13:15:18.985Z,990.03
2023-05-10T13:16:18.492Z,990.02
2023-05-10T13:17:19.015Z,990.08
2023-05-10T13:18:18.436Z,990.05
2023-05-10T13:19:18.500Z,990.11
2023-05-10T13:20:19.115Z,990.04
2023-05-10T13:21:18.175Z,990.12
2023-05-10T13:22:25.544Z,990.04
2023-05-10T13:23:20.295Z,990.09
2023-05-10T13:24:18.185Z,990.09
2023-05-10T13:25:18.472Z,990.12
2023-05-10T13:26:18.313Z,990.07
2023-05-10T13:27:18.312Z,990.09
2023-05-10T13:28:18.281Z,990.11
2023-05-10T13:29:18.259Z,990.12
2023-05-10T13:30:18.403Z,990.10
2023-05-10T13:31:18.770Z,990.14
2023-05-10T13:32:18.756Z,990.13
2023-05-10T13:33:18.712Z,990.19
2023-05-10T13:34:18.312Z,990.16
2023-05-10T13:35:18.266Z,990.19
2023-05-10T13:36:18.342Z,990.10
2023-05-10T13:37:18.169Z,990.19
2023-05-10T13:38:19.440Z,990.20
2023-05-10T13:39:18.295Z,990.15
2023-05-10T13:40:18.397Z,990.15
2023-05-10T13:41:18.132Z,990.34
2023-05-10T13:42:18.468Z,990.21
2023-05-10T13:43:18.656Z,990.18
2023-05-10T13:44:18.732Z,990.30
2023-05-10T13:45:18.424Z,990.24
2023-05-10T13:46:18.460Z,990.23
2023-05-10T13:47:17.988Z,990.31
2023-05-10T13:48:18.222Z,990.30
2023-05-10T13:49:18.023Z,990.28
2023-05-10T13:50:18.599Z,990.31
2023-05-10T13:51:18.300Z,990.36
2023-05-10T13:52:18.695Z,990.36
2023-05-10T13:53:18.617Z,990.37
2023-05-10T13:54:18.097Z,990.36
2023-05-10T13:55:18.522Z,990.45
2023-05-10T13:56:18.127Z,990.45
2023-05-10T13:57:18.604Z,990.35
2023-05-10T13:58:18.269Z,990.37
2023-05-10T13:59:18.314Z,990.39
2023-05-10T14:00:18.234Z,990.45
2023-05-10T14:01:18.770Z,990.51
2023-05-10T14:02:18.041Z,990.50
2023-05-10T14:03:18.092Z,990.52
2023-05-10T14:04:18.005Z,990.59
2023-05-10T14:06:17.969Z,990.57
2023-05-10T14:07:17.943Z,990.61
2023-05-10T14:08:17.951Z,990.69
2023-05-10T14:09:18.064Z,990.64
2023-05-10T14:10:18.010Z,990.65
2023-05-10T14:11:17.856Z,990.66
2023-05-10T14:12:17.898Z,990.66
2023-05-10T14:13:18.030Z,990.70
2023-05-10T14:14:17.964Z,990.68
2023-05-10T14:15:18.366Z,990.66
2023-05-10T14:16:17.950Z,990.71
2023-05-10T14:17:17.948Z,990.66
2023-05-10T14:18:17.924Z,990.70
2023-05-10T14:19:17.981Z,990.66
2023-05-10T14:20:17.953Z,990.71
2023-05-10T14:21:19.160Z,990.67
2023-05-10T14:22:18.258Z,990.69
2023-05-10T14:23:17.933Z,990.73
2023-05-10T14:24:17.986Z,990.72
2023-05-10T14:25:18.092Z,990.73
2023-05-10T14:26:17.856Z,990.68
2023-05-10T14:27:17.876Z,990.70
2023-05-10T14:28:18.154Z,990.66
2023-05-10T14:29:17.873Z,990.77
2023-05-10T14:30:17.808Z,990.68
2023-05-10T14:31:18.179Z,990.68
2023-05-10T14:32:17.936Z,990.59
2023-05-10T14:33:18.501Z,990.64
2023-05-10T14:34:18.327Z,990.63
2023-05-10T14:35:19.722Z,990.60
2023-05-10T14:36:18.912Z,990.58
2023-05-10T14:37:18.068Z,990.64
2023-05-10T14:38:18.524Z,990.64
2023-05-10T14:39:17.916Z,990.65
2023-05-10T14:40:18.143Z,990.72
2023-05-10T14:41:17.981Z,990.67
2023-05-10T14:42:17.895Z,990.66
2023-05-10T14:43:17.913Z,990.61
2023-05-10T14:44:18.608Z,990.64
2023-05-10T14:45:22.874Z,990.70
2023-05-10T14:46:18.115Z,990.66
2023-05-10T14:47:17.941Z,990.74
2023-05-10T14:48:18.257Z,990.73
2023-05-10T14:49:17.911Z,990.69
2023-05-10T14:50:34.703Z,990.68
2023-05-10T14:51:20.199Z,990.72
2023-05-10T14:52:18.045Z,990.74
2023-05-10T14:53:22.429Z,990.73
2023-05-10T14:54:18.773Z,990.79
2023-05-10T14:55:18.650Z,990.76
2023-05-10T14:56:17.852Z,990.77
2023-05-10T14:57:18.293Z,990.76
2023-05-10T14:58:18.186Z,990.76
2023-05-10T14:59:18.351Z,990.72
2023-05-10T15:00:18.308Z,990.72
2023-05-10T15:01:18.534Z,990.69
2023-05-10T15:02:18.363Z,990.68
2023-05-10T15:03:18.241Z,990.67